Time;durP1;ratioP1;P1;durP2;ratioP2;P2;SDS_P1;SDS_P2;PMS_P1;PMS_P2;Temp;Humidity;BMP_temperature;BMP_pressure;BME280_temperature;BME280_humidity;BME280_pressure;Samples;Min_cycle;Max_cycle;Signal;HPM_P1;HPM_P2
2022/11/26 00:01:38;;;;;;;2.28;1.15;;;;;;;7.38;100.00;101211.75;5087755;28;20058;-73
2022/11/26 00:04:03;;;;;;;2.67;1.35;;;;;;;7.35;100.00;101213.72;5090299;28;20051;-74
2022/11/26 00:06:35;;;;;;;3.70;1.20;;;;;;;7.28;100.00;101213.28;5088749;28;20040;-74
2022/11/26 00:09:01;;;;;;;6.00;1.35;;;;;;;7.11;100.00;101217.03;5088425;28;20466;-74
2022/11/26 00:11:27;;;;;;;3.58;1.27;;;;;;;6.91;100.00;101222.75;5095859;28;20032;-74
2022/11/26 00:13:52;;;;;;;2.58;0.85;;;;;;;6.79;100.00;101228.72;5090231;28;20027;-73
2022/11/26 00:16:18;;;;;;;3.63;1.17;;;;;;;6.82;100.00;101228.53;5086399;28;20060;-74
2022/11/26 00:18:43;;;;;;;3.42;1.10;;;;;;;6.68;100.00;101224.25;5090800;28;20096;-74
2022/11/26 00:21:22;;;;;;;2.80;1.48;;;;;;;6.54;100.00;101225.19;5089486;28;20047;-74
2022/11/26 00:23:47;;;;;;;3.15;1.38;;;;;;;6.49;100.00;101223.81;5095657;28;20383;-74
2022/11/26 00:26:17;;;;;;;4.93;2.05;;;;;;;6.53;100.00;101222.69;5091795;28;20036;-74
2022/11/26 00:28:58;;;;;;;7.60;1.52;;;;;;;6.47;100.00;101221.34;5090262;28;20390;-74
2022/11/26 00:31:25;;;;;;;5.20;1.50;;;;;;;6.42;100.00;101214.78;5088751;28;20110;-74
2022/11/26 00:33:51;;;;;;;2.65;1.05;;;;;;;6.44;100.00;101233.66;5092959;28;20514;-74
2022/11/26 00:36:27;;;;;;;5.07;1.10;;;;;;;6.53;100.00;101222.69;5088928;28;20028;-74
2022/11/26 00:38:57;;;;;;;3.40;1.02;;;;;;;6.49;100.00;101227.25;5094027;28;20372;-73
2022/11/26 00:41:24;;;;;;;4.63;1.38;;;;;;;6.49;100.00;101229.00;5091426;28;20424;-74
2022/11/26 00:43:50;;;;;;;3.33;0.70;;;;;;;6.63;100.00;101228.91;5089947;28;20601;-73
2022/11/26 00:46:18;;;;;;;4.75;1.08;;;;;;;6.65;100.00;101224.47;5088835;28;20067;-73
2022/11/26 00:48:44;;;;;;;2.22;1.00;;;;;;;6.87;100.00;101227.31;5092667;28;20024;-74
2022/11/26 00:51:20;;;;;;;1.70;1.00;;;;;;;7.15;100.00;101246.16;5087232;28;20047;-74
2022/11/26 00:53:47;;;;;;;1.52;0.60;;;;;;;7.36;100.00;101242.13;5089046;28;20471;-75
2022/11/26 00:56:16;;;;;;;2.00;0.60;;;;;;;7.35;100.00;101250.00;5090170;28;20458;-74
2022/11/26 00:58:43;;;;;;;2.25;0.90;;;;;;;7.29;100.00;101248.66;5092436;28;20081;-75
2022/11/26 01:01:11;;;;;;;4.43;0.90;;;;;;;7.23;100.00;101247.31;5089751;28;20055;-74
2022/11/26 01:03:41;;;;;;;2.47;1.05;;;;;;;7.13;100.00;101260.97;5088703;28;20367;-74
2022/11/26 01:06:16;;;;;;;4.60;1.10;;;;;;;7.07;100.00;101256.25;5089378;28;20031;-74
2022/11/26 01:08:42;;;;;;;3.45;0.90;;;;;;;7.08;100.00;101265.66;5088239;28;20028;-74
2022/11/26 01:11:11;;;;;;;1.98;0.65;;;;;;;7.07;100.00;101264.00;5093537;28;20043;-74
2022/11/26 01:13:37;;;;;;;1.83;0.77;;;;;;;7.09;100.00;101269.94;5092337;28;20034;-74
2022/11/26 01:16:14;;;;;;;3.53;0.77;;;;;;;7.14;100.00;101265.22;5092474;28;20031;-74
2022/11/26 01:18:40;;;;;;;2.40;0.88;;;;;;;7.14;100.00;101267.81;5080017;28;20027;-74
2022/11/26 01:21:09;;;;;;;1.50;0.70;;;;;;;7.13;100.00;101271.34;5092250;28;20359;-74
2022/11/26 01:23:34;;;;;;;1.48;0.82;;;;;;;7.12;100.00;101269.69;5086947;28;20498;-74
2022/11/26 01:26:00;;;;;;;5.68;1.73;;;;;;;7.12;100.00;101272.28;5092012;28;20066;-74
2022/11/26 01:28:25;;;;;;;7.30;2.90;;;;;;;6.95;100.00;101276.84;5090203;28;20379;-74
2022/11/26 01:30:51;;;;;;;7.10;4.20;;;;;;;6.82;100.00;101272.56;5086717;28;20394;-74
2022/11/26 01:33:16;;;;;;;6.28;4.07;;;;;;;6.68;100.00;101276.03;5086351;28;20032;-74
2022/11/26 01:35:41;;;;;;;4.15;1.90;;;;;;;6.68;100.00;101267.44;5088464;28;20039;-74
2022/11/26 01:38:12;;;;;;;3.92;1.60;;;;;;;6.79;100.00;101265.00;5092933;28;20390;-74
2022/11/26 01:40:53;;;;;;;4.43;1.08;;;;;;;6.87;100.00;101268.75;5087604;28;20542;-74
2022/11/26 01:43:28;;;;;;;3.00;1.17;;;;;;;6.89;100.00;101272.06;5086094;28;20066;-74
2022/11/26 01:45:55;;;;;;;3.10;1.05;;;;;;;6.89;100.00;101269.47;5088562;28;20032;-74
2022/11/26 01:48:32;;;;;;;2.85;1.33;;;;;;;6.81;100.00;101276.09;5094120;28;20193;-74
2022/11/26 01:51:06;;;;;;;3.30;0.95;;;;;;;6.75;100.00;101271.31;5096947;28;20038;-74
2022/11/26 01:53:54;;;;;;;1.67;0.75;;;;;;;6.74;100.00;101265.28;5092112;28;20081;-74
2022/11/26 01:56:23;;;;;;;3.50;1.35;;;;;;;6.74;100.00;101265.28;5091555;28;20039;-74
2022/11/26 01:58:55;;;;;;;2.90;1.05;;;;;;;6.74;100.00;101269.63;5091964;28;20051;-74
2022/11/26 02:01:21;;;;;;;2.83;1.25;;;;;;;6.71;100.00;101268.09;5091631;28;20020;-74
2022/11/26 02:03:51;;;;;;;3.45;1.30;;;;;;;6.65;100.00;101265.88;5092298;28;20580;-74
2022/11/26 02:06:23;;;;;;;2.78;1.17;;;;;;;6.61;100.00;101259.28;5091036;28;20108;-74
2022/11/26 02:08:48;;;;;;;3.63;1.38;;;;;;;6.62;100.00;101263.50;5092770;28;20125;-74
2022/11/26 02:11:19;;;;;;;2.35;1.33;;;;;;;6.62;100.00;101258.31;5089372;28;20028;-73
2022/11/26 02:13:51;;;;;;;2.80;1.00;;;;;;;6.60;100.00;101265.38;5094389;28;20120;-74
2022/11/26 02:16:31;;;;;;;2.60;1.20;;;;;;;6.58;100.00;101262.91;5098460;28;20486;-74
2022/11/26 02:19:23;;;;;;;1.80;1.00;;;;;;;6.57;100.00;101263.00;5087041;28;20111;-74
2022/11/26 02:22:01;;;;;;;2.25;0.95;;;;;;;6.53;100.00;101257.19;5091768;28;20154;-73
2022/11/26 02:24:46;;;;;;;4.20;1.20;;;;;;;6.51;100.00;101256.44;5090212;28;20167;-74
2022/11/26 02:27:47;;;;;;;2.13;1.15;;;;;;;6.55;100.00;101254.50;5091008;28;20035;-74
2022/11/26 02:30:14;;;;;;;3.30;1.10;;;;;;;6.54;100.00;101263.19;5087404;28;20036;-74
2022/11/26 02:32:40;;;;;;;5.07;1.42;;;;;;;6.53;100.00;101258.94;5093972;28;20024;-73
2022/11/26 02:35:14;;;;;;;2.05;1.10;;;;;;;6.54;100.00;101263.19;5090732;28;20036;-74
2022/11/26 02:38:00;;;;;;;3.58;1.02;;;;;;;6.48;100.00;101268.75;5099127;28;20022;-74
2022/11/26 02:40:27;;;;;;;2.58;1.15;;;;;;;6.42;100.00;101266.56;5098061;28;20020;-74
2022/11/26 02:42:52;;;;;;;2.30;1.05;;;;;;;6.39;100.00;101280.53;5099424;28;20760;-74
2022/11/26 02:45:39;;;;;;;3.03;1.30;;;;;;;6.39;100.00;101282.28;5090815;28;20040;-74
2022/11/26 02:48:12;;;;;;;2.83;1.15;;;;;;;6.39;100.00;101277.09;5089439;28;20546;-74
2022/11/26 02:50:47;;;;;;;1.75;1.05;;;;;;;6.42;100.00;101287.28;5091722;28;20127;-74
2022/11/26 02:53:16;;;;;;;2.38;1.00;;;;;;;6.39;100.00;101290.88;5090400;28;20078;-73
2022/11/26 02:55:46;;;;;;;4.03;1.30;;;;;;;6.39;100.00;101290.06;5092575;28;20028;-74
2022/11/26 02:58:12;;;;;;;1.95;0.93;;;;;;;6.44;100.00;101288.00;5089986;28;20397;-73
2022/11/26 03:00:41;;;;;;;2.13;0.70;;;;;;;6.45;100.00;101297.44;5090324;28;20386;-74
2022/11/26 03:03:22;;;;;;;1.77;0.93;;;;;;;6.48;100.00;101292.88;5091834;28;20026;-74
2022/11/26 03:05:52;;;;;;;3.92;1.25;;;;;;;6.49;100.00;101289.38;5090179;28;20384;-74
2022/11/26 03:08:18;;;;;;;4.35;0.80;;;;;;;6.51;100.00;101292.69;5089813;28;20032;-74
2022/11/26 03:10:43;;;;;;;2.05;1.00;;;;;;;6.49;100.00;101296.31;5090493;28;20043;-74
2022/11/26 03:13:09;;;;;;;2.85;0.90;;;;;;;6.50;100.00;101295.38;5089852;28;20406;-74
2022/11/26 03:15:34;;;;;;;4.75;1.10;;;;;;;6.49;100.00;101299.72;5098811;28;20170;-74
2022/11/26 03:17:59;;;;;;;4.50;1.05;;;;;;;6.49;100.00;101298.91;5085824;28;20205;-74
2022/11/26 03:20:25;;;;;;;2.63;0.77;;;;;;;6.44;100.00;101311.31;5088855;28;20387;-73
2022/11/26 03:22:50;;;;;;;3.75;0.98;;;;;;;6.44;100.00;101301.78;5089440;28;20421;-73
2022/11/26 03:25:16;;;;;;;2.10;0.90;;;;;;;6.42;100.00;101302.81;5090412;28;20402;-74
2022/11/26 03:27:41;;;;;;;2.28;0.93;;;;;;;6.43;100.00;101296.69;5090376;28;20039;-73
2022/11/26 03:30:08;;;;;;;2.08;0.73;;;;;;;6.43;100.00;101302.69;5094178;28;20504;-74
2022/11/26 03:32:33;;;;;;;3.20;0.85;;;;;;;6.43;100.00;101301.88;5097146;28;20024;-73
2022/11/26 03:34:59;;;;;;;3.40;0.93;;;;;;;6.39;100.00;101305.59;5092158;28;20035;-73
2022/11/26 03:37:24;;;;;;;1.75;0.85;;;;;;;6.41;100.00;101298.56;5090387;28;20032;-74
2022/11/26 03:39:49;;;;;;;2.65;0.70;;;;;;;6.39;100.00;101306.41;5088943;28;20039;-74
2022/11/26 03:42:15;;;;;;;2.33;0.70;;;;;;;6.38;100.00;101298.75;5086855;28;20122;-73
2022/11/26 03:44:40;;;;;;;5.20;1.02;;;;;;;6.39;100.00;101300.41;5094243;28;20039;-73
2022/11/26 03:47:06;;;;;;;1.05;0.57;;;;;;;6.33;100.00;101297.28;5098937;28;20027;-73
2022/11/26 03:49:32;;;;;;;1.85;0.80;;;;;;;6.32;100.00;101294.78;5088037;28;20475;-73
2022/11/26 03:51:58;;;;;;;2.08;1.13;;;;;;;6.28;100.00;101307.09;5086088;28;20048;-73
2022/11/26 03:54:23;;;;;;;2.03;0.60;;;;;;;6.22;100.00;101299.69;5091399;28;20119;-73
2022/11/26 03:56:49;;;;;;;1.92;0.70;;;;;;;6.13;100.00;101307.22;5094637;28;20863;-74
2022/11/26 03:59:14;;;;;;;4.05;0.40;;;;;;;6.06;100.00;101309.38;5091781;28;20126;-73
2022/11/26 04:01:40;;;;;;;5.22;0.60;;;;;;;5.94;100.00;101304.94;5101156;28;20028;-74
2022/11/26 04:04:05;;;;;;;1.63;0.70;;;;;;;5.81;100.00;101311.75;5094303;28;20038;-74
2022/11/26 04:06:31;;;;;;;3.65;1.15;;;;;;;5.71;100.00;101305.47;5093274;28;20036;-74
2022/11/26 04:08:56;;;;;;;1.70;0.63;;;;;;;5.60;100.00;101316.50;5089910;28;20063;-73
2022/11/26 04:11:22;;;;;;;2.10;0.63;;;;;;;5.53;100.00;101315.19;5088928;28;20034;-74
2022/11/26 04:13:47;;;;;;;2.38;0.80;;;;;;;5.44;100.00;101321.72;5088935;28;20035;-73
2022/11/26 04:16:12;;;;;;;1.48;0.75;;;;;;;5.35;100.00;101324.84;5089128;28;20059;-74
2022/11/26 04:18:38;;;;;;;2.55;0.70;;;;;;;5.23;100.00;101322.97;5092764;28;20024;-74
2022/11/26 04:21:07;;;;;;;1.60;0.73;;;;;;;5.13;100.00;101325.28;5088502;28;20081;-73
2022/11/26 04:23:34;;;;;;;3.33;1.05;;;;;;;5.00;100.00;101332.06;5089835;28;20444;-74
2022/11/26 04:25:59;;;;;;;3.60;1.42;;;;;;;4.88;100.00;101341.34;5089375;28;20555;-73
2022/11/26 04:28:25;;;;;;;2.05;0.93;;;;;;;4.85;100.00;101343.25;5091346;28;20114;-73
2022/11/26 04:30:50;;;;;;;1.52;0.75;;;;;;;4.78;100.00;101331.63;5088729;28;20035;-73
2022/11/26 04:33:15;;;;;;;2.22;0.93;;;;;;;4.79;100.00;101339.28;5088876;28;20043;-73
2022/11/26 04:35:41;;;;;;;4.22;1.58;;;;;;;4.77;100.00;101341.09;5089756;28;20463;-74
2022/11/26 04:38:07;;;;;;;5.00;2.05;;;;;;;4.76;100.00;101339.44;5089097;28;20042;-73
2022/11/26 04:40:32;;;;;;;4.07;1.52;;;;;;;4.80;100.00;101342.69;5094825;28;20036;-74
2022/11/26 04:42:57;;;;;;;2.85;1.45;;;;;;;4.78;100.00;101342.78;5097950;28;20030;-74
2022/11/26 04:45:23;;;;;;;4.07;1.42;;;;;;;4.65;100.00;101352.16;5085902;28;20395;-74
2022/11/26 04:47:49;;;;;;;1.63;0.93;;;;;;;4.57;100.00;101354.31;5085104;28;20021;-74
2022/11/26 04:50:14;;;;;;;2.90;1.30;;;;;;;4.52;100.00;101358.88;5084390;28;20043;-72
2022/11/26 04:52:39;;;;;;;3.63;1.55;;;;;;;4.48;100.00;101349.66;5090925;28;20031;-73
2022/11/26 04:55:05;;;;;;;6.38;1.90;;;;;;;4.36;100.00;101370.94;5088421;28;20039;-73
2022/11/26 04:57:30;;;;;;;2.63;1.60;;;;;;;4.37;100.00;101363.13;5089345;28;20039;-73
2022/11/26 04:59:56;;;;;;;4.88;2.20;;;;;;;4.46;100.00;101357.47;5090134;28;20112;-72
2022/11/26 05:02:21;;;;;;;4.60;2.80;;;;;;;4.47;100.00;101376.38;5089433;28;20043;-73
2022/11/26 05:04:47;;;;;;;5.75;2.55;;;;;;;4.40;100.00;101378.44;5088346;28;20031;-73
2022/11/26 05:07:12;;;;;;;7.25;4.00;;;;;;;4.32;100.00;101368.53;5087044;28;20085;-73
2022/11/26 05:09:38;;;;;;;8.30;4.07;;;;;;;4.31;100.00;101379.75;5089796;28;20020;-73
2022/11/26 05:12:03;;;;;;;3.88;2.15;;;;;;;4.44;100.00;101379.13;5090029;28;20073;-73
2022/11/26 05:14:29;;;;;;;5.93;3.17;;;;;;;4.63;100.00;101384.94;5089246;28;20141;-73
2022/11/26 05:16:54;;;;;;;7.57;3.97;;;;;;;4.62;100.00;101398.78;5088671;28;20474;-73
2022/11/26 05:19:20;;;;;;;7.05;3.53;;;;;;;4.49;100.00;101384.88;5089189;28;20186;-72
2022/11/26 05:21:45;;;;;;;8.20;3.30;;;;;;;4.47;100.00;101390.09;5088676;28;20035;-73
2022/11/26 05:24:10;;;;;;;7.57;3.85;;;;;;;4.57;100.00;101400.75;5093708;28;20058;-73
2022/11/26 05:26:36;;;;;;;8.10;3.42;;;;;;;4.67;100.00;101378.72;5093968;28;20464;-73
2022/11/26 05:29:01;;;;;;;8.00;3.10;;;;;;;4.69;100.00;101413.00;5092309;28;20383;-73
2022/11/26 05:31:28;;;;;;;8.20;2.72;;;;;;;4.67;100.00;101407.09;5093327;28;20097;-73
2022/11/26 05:33:54;;;;;;;5.10;2.53;;;;;;;4.86;100.00;101399.16;5102218;28;20081;-73
2022/11/26 05:36:19;;;;;;;7.10;2.88;;;;;;;4.81;100.00;101417.47;5092155;28;20390;-72
2022/11/26 05:38:45;;;;;;;6.22;2.30;;;;;;;4.90;100.00;101414.41;5091616;28;20488;-73
2022/11/26 05:41:10;;;;;;;5.18;2.58;;;;;;;4.89;100.00;101410.16;5092315;28;20046;-73
2022/11/26 05:43:35;;;;;;;10.63;6.88;;;;;;;4.84;100.00;101419.91;5091115;28;20060;-73
2022/11/26 05:46:08;;;;;;;6.55;2.78;;;;;;;4.73;100.00;101411.91;5093405;28;20032;-73
2022/11/26 05:48:34;;;;;;;3.17;1.80;;;;;;;4.81;100.00;101414.06;5091768;28;20036;-73
2022/11/26 05:51:01;;;;;;;3.88;2.33;;;;;;;4.82;100.00;101407.97;5091535;28;20028;-73
2022/11/26 05:53:27;;;;;;;7.70;2.65;;;;;;;4.78;100.00;101409.91;5092528;28;20167;-73
2022/11/26 05:55:52;;;;;;;3.70;2.10;;;;;;;4.77;100.00;101412.56;5093502;28;20136;-73
2022/11/26 05:58:18;;;;;;;21.27;12.25;;;;;;;4.82;100.00;101421.72;5092470;28;20035;-73
2022/11/26 06:00:44;;;;;;;11.52;5.85;;;;;;;4.86;100.00;101420.63;5090688;28;20020;-73
2022/11/26 06:03:09;;;;;;;7.82;4.25;;;;;;;4.85;100.00;101426.72;5090896;28;20131;-73
2022/11/26 06:05:35;;;;;;;21.45;11.27;;;;;;;4.88;100.00;101426.56;5091578;28;20020;-73
2022/11/26 06:08:00;;;;;;;12.20;7.22;;;;;;;4.87;100.00;101432.63;5090771;28;20368;-73
2022/11/26 06:10:26;;;;;;;6.95;4.25;;;;;;;4.87;100.00;101424.06;5092707;28;20036;-73
2022/11/26 06:12:51;;;;;;;19.08;9.55;;;;;;;4.85;100.00;101443.97;5093059;28;20111;-73
2022/11/26 06:15:17;;;;;;;10.63;5.63;;;;;;;4.83;100.00;101428.56;5092442;28;20085;-73
2022/11/26 06:17:42;;;;;;;7.53;3.65;;;;;;;4.88;100.00;101448.97;5091860;28;20055;-73
2022/11/26 06:20:08;;;;;;;8.65;4.80;;;;;;;4.84;100.00;101448.28;5092671;28;20083;-73
2022/11/26 06:22:41;;;;;;;12.88;7.25;;;;;;;4.91;100.00;101423.81;5090365;28;20077;-73
2022/11/26 06:25:09;;;;;;;10.75;5.47;;;;;;;5.02;100.00;101449.03;5091951;28;20364;-73
2022/11/26 06:27:36;;;;;;;15.18;7.43;;;;;;;5.03;100.00;101460.22;5091881;28;20098;-73
2022/11/26 06:30:03;;;;;;;11.35;6.03;;;;;;;5.11;100.00;101456.28;5092881;28;20123;-73
2022/11/26 06:32:30;;;;;;;13.98;7.00;;;;;;;5.16;100.00;101463.78;5092190;28;20039;-72
2022/11/26 06:34:56;;;;;;;58.72;28.02;;;;;;;5.17;100.00;101462.88;5090640;28;20028;-73
2022/11/26 06:37:22;;;;;;;24.88;12.07;;;;;;;5.28;100.00;101468.25;5089251;28;20375;-72
2022/11/26 06:39:48;;;;;;;24.88;13.85;;;;;;;5.32;100.00;101455.06;5092294;28;20039;-73
2022/11/26 06:42:13;;;;;;;13.18;6.45;;;;;;;5.41;100.00;101482.16;5092153;28;20085;-73
2022/11/26 06:44:39;;;;;;;14.48;6.00;;;;;;;5.74;100.00;101476.78;5092508;28;20357;-73
2022/11/26 06:47:04;;;;;;;11.90;5.22;;;;;;;5.79;100.00;101461.00;5092242;28;20418;-74
2022/11/26 06:49:30;;;;;;;11.52;6.43;;;;;;;5.77;100.00;101499.06;5091108;28;20119;-73
2022/11/26 06:51:55;;;;;;;8.98;3.45;;;;;;;6.28;100.00;101493.44;5092212;28;20028;-73
2022/11/26 06:54:21;;;;;;;6.43;3.67;;;;;;;6.52;100.00;101492.88;5091753;28;20490;-73
2022/11/26 06:56:46;;;;;;;25.00;12.15;;;;;;;6.44;100.00;101503.69;5092068;28;20075;-73
2022/11/26 06:59:12;;;;;;;11.98;5.40;;;;;;;6.40;100.00;101497.03;5090099;28;20028;-72
2022/11/26 07:01:38;;;;;;;15.50;7.72;;;;;;;6.28;100.00;101521.91;5092182;28;20464;-73
2022/11/26 07:04:04;;;;;;;9.88;5.05;;;;;;;6.22;100.00;101496.38;5091291;28;20031;-73
2022/11/26 07:06:31;;;;;;;9.45;3.50;;;;;;;6.26;100.00;101497.03;5091244;28;20036;-73
2022/11/26 07:09:05;;;;;;;17.05;8.40;;;;;;;6.32;100.00;101523.38;5090599;28;20028;-73
2022/11/26 07:11:31;;;;;;;16.10;7.57;;;;;;;6.46;100.00;101519.97;5091353;28;20039;-73
2022/11/26 07:13:56;;;;;;;10.02;6.18;;;;;;;6.53;100.00;101526.44;5091791;28;20435;-73
2022/11/26 07:16:23;;;;;;;6.90;3.25;;;;;;;6.53;100.00;101546.34;5090819;28;20027;-73
2022/11/26 07:18:50;;;;;;;6.13;2.42;;;;;;;6.73;100.00;101548.53;5089647;28;20027;-73
2022/11/26 07:21:16;;;;;;;5.22;2.47;;;;;;;6.78;100.00;101543.91;5090584;28;20036;-73
2022/11/26 07:23:41;;;;;;;11.00;6.38;;;;;;;6.83;100.00;101518.53;5090089;28;20108;-73
2022/11/26 07:26:09;;;;;;;9.68;4.50;;;;;;;6.88;100.00;101557.97;5091553;28;20058;-73
2022/11/26 07:28:35;;;;;;;6.15;3.15;;;;;;;7.14;97.94;101540.78;5090015;28;20036;-73
2022/11/26 07:31:05;;;;;;;7.03;2.33;;;;;;;7.56;94.70;101539.78;5091247;28;20032;-73
2022/11/26 07:33:31;;;;;;;15.02;8.65;;;;;;;7.60;97.23;101556.00;5089265;28;20028;-72
2022/11/26 07:36:05;;;;;;;11.10;6.00;;;;;;;7.52;95.18;101568.66;5089934;28;20028;-72
2022/11/26 07:38:31;;;;;;;8.07;4.60;;;;;;;7.52;97.31;101568.66;5089651;28;20429;-72
2022/11/26 07:41:08;;;;;;;8.57;4.68;;;;;;;7.49;99.54;101563.66;5091511;28;20070;-72
2022/11/26 07:43:35;;;;;;;9.00;5.18;;;;;;;7.43;100.00;101558.84;5082686;28;20119;-72
2022/11/26 07:46:01;;;;;;;10.35;4.45;;;;;;;7.51;97.75;101572.16;5088970;28;20039;-72
2022/11/26 07:48:29;;;;;;;12.02;5.22;;;;;;;7.59;98.12;101572.47;5090761;28;20036;-71
2022/11/26 07:50:54;;;;;;;7.32;4.43;;;;;;;7.58;99.79;101565.63;5089981;28;20032;-72
2022/11/26 07:53:20;;;;;;;6.68;2.72;;;;;;;7.56;99.03;101565.72;5089006;28;20044;-72
2022/11/26 07:55:45;;;;;;;5.47;2.30;;;;;;;7.54;99.67;101588.38;5089499;28;20024;-72
2022/11/26 07:58:10;;;;;;;4.82;2.22;;;;;;;7.58;98.71;101584.63;5091095;28;20625;-72
2022/11/26 08:00:36;;;;;;;5.22;2.55;;;;;;;7.61;100.00;101581.84;5091145;28;20032;-72
2022/11/26 08:03:02;;;;;;;5.50;2.53;;;;;;;7.58;100.00;101584.63;5091000;28;20498;-72
2022/11/26 08:05:27;;;;;;;5.10;2.80;;;;;;;7.61;100.00;101568.03;5088914;28;20032;-72
2022/11/26 08:07:52;;;;;;;7.47;2.30;;;;;;;7.54;100.00;101592.72;5090752;28;20478;-72
2022/11/26 08:10:18;;;;;;;10.25;4.68;;;;;;;7.57;100.00;101593.34;5090235;28;20036;-72
2022/11/26 08:12:44;;;;;;;6.75;3.85;;;;;;;7.64;100.00;101581.63;5090936;28;20043;-72
2022/11/26 08:15:10;;;;;;;9.40;3.35;;;;;;;7.69;100.00;101581.34;5089880;28;20754;-71
2022/11/26 08:17:35;;;;;;;9.02;3.60;;;;;;;7.69;100.00;101591.72;5090035;28;20028;-72
2022/11/26 08:20:01;;;;;;;5.72;2.65;;;;;;;7.72;100.00;101596.72;5088603;28;20024;-72
2022/11/26 08:22:28;;;;;;;14.02;5.97;;;;;;;7.70;100.00;101605.53;5089946;28;20131;-72
2022/11/26 08:24:54;;;;;;;13.95;6.28;;;;;;;7.75;100.00;101598.28;5089175;28;20101;-71
2022/11/26 08:27:20;;;;;;;14.68;6.22;;;;;;;7.81;100.00;101590.09;5088541;28;21192;-72
2022/11/26 08:29:45;;;;;;;12.27;5.80;;;;;;;7.83;100.00;101604.66;5089467;28;20093;-73
2022/11/26 08:32:11;;;;;;;14.82;9.27;;;;;;;7.92;100.00;101613.59;5089177;28;20133;-73
2022/11/26 08:34:37;;;;;;;13.15;7.82;;;;;;;8.00;100.00;101608.75;5089555;28;20498;-71
2022/11/26 08:37:02;;;;;;;13.32;7.30;;;;;;;8.04;100.00;101612.78;5089366;28;20030;-72
2022/11/26 08:39:27;;;;;;;11.93;7.30;;;;;;;8.05;100.00;101619.63;5089895;28;20032;-72
2022/11/26 08:41:53;;;;;;;18.90;9.90;;;;;;;8.21;98.50;101617.69;5090108;28;20121;-72
2022/11/26 08:44:19;;;;;;;15.18;8.98;;;;;;;8.28;99.43;101605.16;5088205;28;20467;-72
2022/11/26 08:46:45;;;;;;;14.10;8.98;;;;;;;8.25;98.89;101613.97;5089656;28;20375;-72
2022/11/26 08:49:12;;;;;;;16.65;6.70;;;;;;;8.34;97.05;101629.91;5088984;28;20483;-72
2022/11/26 08:51:37;;;;;;;13.15;5.93;;;;;;;8.46;97.64;101621.31;5088640;28;20058;-72
2022/11/26 08:54:03;;;;;;;25.52;14.95;;;;;;;8.47;96.97;101636.78;5089122;28;20543;-72
2022/11/26 08:56:29;;;;;;;17.58;10.25;;;;;;;8.49;96.63;101631.50;5088583;28;20491;-72
2022/11/26 08:58:55;;;;;;;19.25;9.20;;;;;;;8.50;97.75;101628.78;5089210;28;20363;-72
2022/11/26 09:01:26;;;;;;;19.20;8.93;;;;;;;8.48;96.54;101632.44;5098136;28;20089;-72
2022/11/26 09:03:53;;;;;;;15.88;6.40;;;;;;;8.52;96.78;101629.50;5088915;28;20562;-72
2022/11/26 09:06:20;;;;;;;18.50;7.95;;;;;;;8.56;97.98;101630.13;5089642;28;20043;-72
2022/11/26 09:11:31;;;;;;;12.55;7.50;;;;;;;8.54;97.17;101632.00;5089557;28;20039;-72
2022/11/26 09:13:57;;;;;;;16.45;9.25;;;;;;;8.63;96.07;101606.22;5089703;28;20380;-72
2022/11/26 09:16:24;;;;;;;15.43;9.95;;;;;;;8.63;97.34;101618.38;5089543;28;20042;-72
2022/11/26 09:18:50;;;;;;;11.40;5.57;;;;;;;8.79;94.36;101631.19;5088552;28;20031;-73
2022/11/26 09:21:16;;;;;;;13.63;5.78;;;;;;;8.87;94.30;101627.13;5088743;28;20028;-72
2022/11/26 09:23:41;;;;;;;10.23;5.63;;;;;;;8.82;95.34;101629.19;5089562;28;20051;-72
2022/11/26 09:26:07;;;;;;;9.48;6.03;;;;;;;8.75;96.21;101643.53;5087972;28;20036;-72
2022/11/26 09:28:32;;;;;;;9.90;5.18;;;;;;;8.73;95.90;101645.41;5087548;28;20040;-72
2022/11/26 09:30:58;;;;;;;13.25;6.38;;;;;;;8.71;96.77;101641.25;5089706;28;20111;-73
2022/11/26 09:33:24;;;;;;;10.60;5.40;;;;;;;8.72;97.71;101629.94;5088701;28;20032;-72
2022/11/26 09:35:50;;;;;;;8.93;5.00;;;;;;;8.71;97.54;101628.25;5089999;28;20051;-73
2022/11/26 09:38:15;;;;;;;5.57;3.83;;;;;;;8.69;97.45;101643.13;5089536;28;20032;-72
2022/11/26 09:41:02;;;;;;;10.38;4.10;;;;;;;8.67;97.65;101643.22;5086125;28;20480;-72
2022/11/26 09:43:59;;;;;;;7.38;3.72;;;;;;;8.64;96.95;101649.47;5087329;28;20028;-72
2022/11/26 09:46:35;;;;;;;8.50;4.30;;;;;;;8.68;97.67;101639.69;5089527;28;20122;-73
2022/11/26 09:49:03;;;;;;;6.88;4.03;;;;;;;8.67;98.78;101638.03;5087812;28;20028;-72
2022/11/26 09:51:32;;;;;;;8.15;4.40;;;;;;;8.66;99.26;101644.16;5089144;28;20028;-72
2022/11/26 09:54:02;;;;;;;11.20;4.60;;;;;;;8.71;98.68;101651.66;5089719;28;20024;-72
2022/11/26 09:56:27;;;;;;;7.32;4.47;;;;;;;8.78;98.22;101645.09;5089290;28;20039;-71
2022/11/26 09:58:56;;;;;;;8.13;4.95;;;;;;;8.82;98.03;101644.78;5089807;28;20028;-72
2022/11/26 10:01:23;;;;;;;11.45;5.80;;;;;;;8.88;97.19;101640.94;5089268;28;20036;-72
2022/11/26 10:03:49;;;;;;;12.27;7.03;;;;;;;8.95;95.86;101645.63;5088197;28;20024;-72
2022/11/26 10:06:43;;;;;;;15.48;7.50;;;;;;;8.99;94.13;101654.00;5088115;28;20548;-72
2022/11/26 10:09:42;;;;;;;12.68;5.90;;;;;;;9.11;93.62;101653.19;5088126;28;20039;-72
2022/11/26 10:12:51;;;;;;;16.55;6.72;;;;;;;9.20;94.20;101646.50;5089441;28;20039;-72
2022/11/26 10:15:27;;;;;;;11.48;7.50;;;;;;;9.17;95.65;101642.34;5030188;28;20049;-73
2022/11/26 10:18:22;;;;;;;9.00;5.43;;;;;;;9.18;93.86;101654.41;5026751;28;20045;-72
2022/11/26 10:21:16;;;;;;;5.60;2.90;;;;;;;9.35;90.73;101649.81;5027920;28;20033;-72
2022/11/26 10:24:09;;;;;;;3.50;1.20;;;;;;;9.63;88.92;101636.50;5018491;28;20390;-72
2022/11/26 10:26:38;;;;;;;1.85;0.65;;;;;;;9.73;87.59;101636.69;5022241;28;20110;-72
2022/11/26 10:29:21;;;;;;;1.55;0.63;;;;;;;9.76;85.13;101644.25;5013814;28;20440;-72
2022/11/26 10:31:52;;;;;;;2.38;0.70;;;;;;;9.82;85.49;101649.88;5023819;28;20135;-72
2022/11/26 10:34:24;;;;;;;1.58;0.50;;;;;;;9.82;85.06;101654.22;5024910;28;20041;-72
2022/11/26 10:36:50;;;;;;;4.82;1.50;;;;;;;9.83;86.31;101655.91;5025846;28;20033;-72
2022/11/26 10:39:19;;;;;;;4.40;1.33;;;;;;;9.84;86.54;101652.34;5029715;28;20048;-72
2022/11/26 10:41:45;;;;;;;4.15;1.20;;;;;;;9.78;87.59;101648.41;5028801;28;20112;-72
2022/11/26 10:44:39;;;;;;;3.00;0.80;;;;;;;9.78;84.76;101650.19;5025418;28;20057;-72
2022/11/26 10:47:25;;;;;;;2.95;1.08;;;;;;;9.78;84.60;101660.59;5013558;28;20037;-72
2022/11/26 10:49:53;;;;;;;3.17;1.20;;;;;;;9.84;86.35;101645.38;5041956;28;20428;-72
2022/11/26 10:52:26;;;;;;;4.35;1.23;;;;;;;9.99;82.75;101659.03;5090040;28;20044;-72
2022/11/26 10:55:13;;;;;;;3.35;1.05;;;;;;;10.20;81.19;101660.09;5092079;28;20039;-73
2022/11/26 10:57:42;;;;;;;5.55;1.17;;;;;;;10.20;83.29;101657.50;5091761;28;20051;-73
2022/11/26 11:00:47;;;;;;;6.18;1.77;;;;;;;10.15;83.12;101667.38;5091541;28;20111;-72
2022/11/26 11:03:20;;;;;;;3.97;1.20;;;;;;;10.14;81.55;101650.09;5087346;28;20500;-72
2022/11/26 11:05:46;;;;;;;4.25;1.38;;;;;;;10.21;82.90;101646.13;5091519;28;20031;-73
2022/11/26 11:08:31;;;;;;;3.38;0.98;;;;;;;10.21;79.58;101658.31;5091744;28;20036;-72
2022/11/26 11:11:02;;;;;;;1.75;0.40;;;;;;;10.25;81.89;101655.38;5090795;28;20475;-73
2022/11/26 11:13:43;;;;;;;1.98;0.63;;;;;;;10.27;80.58;101661.31;5089034;28;20097;-73
2022/11/26 11:16:11;;;;;;;5.20;0.40;;;;;;;10.65;72.82;101644.56;5089599;28;20047;-73
2022/11/26 11:18:37;;;;;;;1.58;0.20;;;;;;;11.43;67.06;101641.94;5089103;28;20027;-73
2022/11/26 11:21:04;;;;;;;0.47;0.10;;;;;;;11.49;63.33;101636.22;5088122;28;20046;-73
2022/11/26 11:23:36;;;;;;;1.00;0.10;;;;;;;11.53;64.26;101650.69;5090207;28;20075;-73
2022/11/26 11:26:07;;;;;;;2.88;0.20;;;;;;;11.45;66.42;101642.66;5089394;28;20584;-73
2022/11/26 11:28:36;;;;;;;1.40;0.10;;;;;;;11.30;66.51;101649.09;5088520;28;20107;-73
2022/11/26 11:31:07;;;;;;;0.50;0.10;;;;;;;11.37;64.65;101646.81;5089082;28;20111;-73
2022/11/26 11:33:33;;;;;;;1.75;0.20;;;;;;;11.39;67.08;101640.50;5089840;28;20093;-73
2022/11/26 11:36:05;;;;;;;2.75;0.25;;;;;;;11.23;67.60;101643.53;5090380;28;20479;-73